sensor_id;sensor_type;location;lat;lon;timestamp;P1;durP1;ratioP1;P2;durP2;ratioP2
17852;SDS011;9052;53.494;14.376;2022-08-05T00:02:05;7.40;;;5.17;;
17852;SDS011;9052;53.494;14.376;2022-08-05T00:04:34;8.00;;;5.37;;
17852;SDS011;9052;53.494;14.376;2022-08-05T00:07:01;5.00;;;4.60;;
17852;SDS011;9052;53.494;14.376;2022-08-05T00:09:28;9.40;;;5.13;;
17852;SDS011;9052;53.494;14.376;2022-08-05T00:11:55;5.30;;;4.80;;
17852;SDS011;9052;53.494;14.376;2022-08-05T00:14:22;11.40;;;4.97;;
17852;SDS011;9052;53.494;14.376;2022-08-05T00:16:49;5.60;;;4.70;;
17852;SDS011;9052;53.494;14.376;2022-08-05T00:19:16;5.70;;;5.30;;
17852;SDS011;9052;53.494;14.376;2022-08-05T00:21:44;5.90;;;5.30;;
17852;SDS011;9052;53.494;14.376;2022-08-05T00:24:11;8.23;;;5.83;;
17852;SDS011;9052;53.494;14.376;2022-08-05T00:26:38;13.33;;;5.60;;
17852;SDS011;9052;53.494;14.376;2022-08-05T00:29:05;6.00;;;4.57;;
17852;SDS011;9052;53.494;14.376;2022-08-05T00:31:32;7.00;;;6.37;;
17852;SDS011;9052;53.494;14.376;2022-08-05T00:33:59;5.23;;;4.83;;
17852;SDS011;9052;53.494;14.376;2022-08-05T00:36:26;6.37;;;5.83;;
17852;SDS011;9052;53.494;14.376;2022-08-05T00:38:54;10.23;;;6.07;;
17852;SDS011;9052;53.494;14.376;2022-08-05T00:41:28;5.30;;;4.90;;
17852;SDS011;9052;53.494;14.376;2022-08-05T00:43:55;6.43;;;4.73;;
17852;SDS011;9052;53.494;14.376;2022-08-05T00:46:22;10.20;;;6.20;;
17852;SDS011;9052;53.494;14.376;2022-08-05T00:48:49;6.33;;;5.47;;
17852;SDS011;9052;53.494;14.376;2022-08-05T00:51:17;10.00;;;5.40;;
17852;SDS011;9052;53.494;14.376;2022-08-05T00:53:44;6.93;;;5.10;;
17852;SDS011;9052;53.494;14.376;2022-08-05T00:56:13;6.10;;;5.60;;
17852;SDS011;9052;53.494;14.376;2022-08-05T00:58:40;6.40;;;5.37;;
17852;SDS011;9052;53.494;14.376;2022-08-05T01:01:08;7.87;;;5.50;;
17852;SDS011;9052;53.494;14.376;2022-08-05T01:03:35;5.70;;;5.10;;
17852;SDS011;9052;53.494;14.376;2022-08-05T01:06:03;6.23;;;5.73;;
17852;SDS011;9052;53.494;14.376;2022-08-05T01:08:30;6.87;;;6.17;;
17852;SDS011;9052;53.494;14.376;2022-08-05T01:10:58;7.20;;;5.50;;
17852;SDS011;9052;53.494;14.376;2022-08-05T01:13:32;7.10;;;5.80;;
17852;SDS011;9052;53.494;14.376;2022-08-05T01:16:04;6.43;;;5.40;;
17852;SDS011;9052;53.494;14.376;2022-08-05T01:18:36;6.33;;;5.73;;
17852;SDS011;9052;53.494;14.376;2022-08-05T01:21:09;11.97;;;5.60;;
17852;SDS011;9052;53.494;14.376;2022-08-05T01:23:41;6.70;;;6.10;;
17852;SDS011;9052;53.494;14.376;2022-08-05T01:26:18;6.67;;;6.07;;
17852;SDS011;9052;53.494;14.376;2022-08-05T01:29:02;7.10;;;6.30;;
17852;SDS011;9052;53.494;14.376;2022-08-05T01:31:33;6.70;;;5.93;;
17852;SDS011;9052;53.494;14.376;2022-08-05T01:34:03;6.57;;;6.07;;
17852;SDS011;9052;53.494;14.376;2022-08-05T01:36:35;8.27;;;5.47;;
17852;SDS011;9052;53.494;14.376;2022-08-05T01:39:05;7.37;;;6.43;;
17852;SDS011;9052;53.494;14.376;2022-08-05T01:41:33;10.00;;;6.50;;
17852;SDS011;9052;53.494;14.376;2022-08-05T01:44:02;23.07;;;6.30;;
17852;SDS011;9052;53.494;14.376;2022-08-05T01:46:31;11.37;;;6.20;;
17852;SDS011;9052;53.494;14.376;2022-08-05T01:48:58;8.33;;;7.20;;
17852;SDS011;9052;53.494;14.376;2022-08-05T01:51:26;9.50;;;6.03;;
17852;SDS011;9052;53.494;14.376;2022-08-05T01:53:55;24.70;;;6.73;;
17852;SDS011;9052;53.494;14.376;2022-08-05T01:56:25;7.30;;;6.60;;
17852;SDS011;9052;53.494;14.376;2022-08-05T01:58:55;7.23;;;6.53;;
17852;SDS011;9052;53.494;14.376;2022-08-05T02:01:24;8.03;;;7.13;;
17852;SDS011;9052;53.494;14.376;2022-08-05T02:03:52;13.10;;;7.27;;
17852;SDS011;9052;53.494;14.376;2022-08-05T02:06:19;11.10;;;8.20;;
17852;SDS011;9052;53.494;14.376;2022-08-05T02:08:46;16.73;;;8.10;;
17852;SDS011;9052;53.494;14.376;2022-08-05T02:11:14;9.97;;;8.07;;
17852;SDS011;9052;53.494;14.376;2022-08-05T02:13:43;11.90;;;8.73;;
17852;SDS011;9052;53.494;14.376;2022-08-05T02:16:13;21.80;;;7.77;;
17852;SDS011;9052;53.494;14.376;2022-08-05T02:18:49;9.63;;;7.67;;
17852;SDS011;9052;53.494;14.376;2022-08-05T02:21:21;10.80;;;8.67;;
17852;SDS011;9052;53.494;14.376;2022-08-05T02:23:51;11.20;;;7.40;;
17852;SDS011;9052;53.494;14.376;2022-08-05T02:26:21;7.57;;;6.63;;
17852;SDS011;9052;53.494;14.376;2022-08-05T02:28:50;7.80;;;6.10;;
17852;SDS011;9052;53.494;14.376;2022-08-05T02:31:22;8.53;;;7.70;;
17852;SDS011;9052;53.494;14.376;2022-08-05T02:33:56;8.50;;;7.30;;
17852;SDS011;9052;53.494;14.376;2022-08-05T02:36:24;9.53;;;8.27;;
17852;SDS011;9052;53.494;14.376;2022-08-05T02:38:51;12.53;;;8.47;;
17852;SDS011;9052;53.494;14.376;2022-08-05T02:41:21;13.27;;;7.10;;
17852;SDS011;9052;53.494;14.376;2022-08-05T02:43:50;16.07;;;8.90;;
17852;SDS011;9052;53.494;14.376;2022-08-05T02:46:17;12.60;;;9.40;;
17852;SDS011;9052;53.494;14.376;2022-08-05T02:48:45;8.40;;;7.53;;
17852;SDS011;9052;53.494;14.376;2022-08-05T02:51:14;8.43;;;7.60;;
17852;SDS011;9052;53.494;14.376;2022-08-05T02:53:41;12.87;;;8.67;;
17852;SDS011;9052;53.494;14.376;2022-08-05T02:56:09;15.00;;;9.10;;
17852;SDS011;9052;53.494;14.376;2022-08-05T02:58:38;8.90;;;8.10;;
17852;SDS011;9052;53.494;14.376;2022-08-05T03:01:05;9.80;;;7.63;;
17852;SDS011;9052;53.494;14.376;2022-08-05T03:03:33;10.37;;;8.00;;
17852;SDS011;9052;53.494;14.376;2022-08-05T03:06:00;9.13;;;8.20;;
17852;SDS011;9052;53.494;14.376;2022-08-05T03:08:29;11.03;;;8.23;;
17852;SDS011;9052;53.494;14.376;2022-08-05T03:10:56;9.90;;;8.87;;
17852;SDS011;9052;53.494;14.376;2022-08-05T03:13:23;13.63;;;9.80;;
17852;SDS011;9052;53.494;14.376;2022-08-05T03:15:50;9.10;;;7.90;;
17852;SDS011;9052;53.494;14.376;2022-08-05T03:18:17;10.00;;;8.43;;
17852;SDS011;9052;53.494;14.376;2022-08-05T03:20:44;9.90;;;7.77;;
17852;SDS011;9052;53.494;14.376;2022-08-05T03:23:11;9.07;;;8.10;;
17852;SDS011;9052;53.494;14.376;2022-08-05T03:25:40;12.63;;;8.40;;
17852;SDS011;9052;53.494;14.376;2022-08-05T03:28:07;9.90;;;8.90;;
17852;SDS011;9052;53.494;14.376;2022-08-05T03:30:35;14.50;;;9.50;;
17852;SDS011;9052;53.494;14.376;2022-08-05T03:33:03;15.10;;;8.83;;
17852;SDS011;9052;53.494;14.376;2022-08-05T03:35:30;18.67;;;8.20;;
17852;SDS011;9052;53.494;14.376;2022-08-05T03:37:58;8.67;;;7.63;;
17852;SDS011;9052;53.494;14.376;2022-08-05T03:40:25;14.30;;;8.57;;
17852;SDS011;9052;53.494;14.376;2022-08-05T03:42:54;10.50;;;8.60;;
17852;SDS011;9052;53.494;14.376;2022-08-05T03:45:21;9.67;;;8.70;;
17852;SDS011;9052;53.494;14.376;2022-08-05T03:47:48;12.03;;;9.17;;
17852;SDS011;9052;53.494;14.376;2022-08-05T03:50:15;12.37;;;8.00;;
17852;SDS011;9052;53.494;14.376;2022-08-05T03:52:43;11.77;;;9.00;;
17852;SDS011;9052;53.494;14.376;2022-08-05T03:55:17;15.20;;;8.40;;
17852;SDS011;9052;53.494;14.376;2022-08-05T03:57:48;17.17;;;9.27;;
17852;SDS011;9052;53.494;14.376;2022-08-05T04:00:19;19.43;;;9.53;;
17852;SDS011;9052;53.494;14.376;2022-08-05T04:02:50;14.87;;;9.73;;
17852;SDS011;9052;53.494;14.376;2022-08-05T04:05:18;13.80;;;9.57;;
17852;SDS011;9052;53.494;14.376;2022-08-05T04:07:46;11.07;;;8.70;;
17852;SDS011;9052;53.494;14.376;2022-08-05T04:10:13;22.50;;;10.50;;
17852;SDS011;9052;53.494;14.376;2022-08-05T04:12:40;17.80;;;9.30;;
17852;SDS011;9052;53.494;14.376;2022-08-05T04:15:07;14.67;;;10.40;;
17852;SDS011;9052;53.494;14.376;2022-08-05T04:17:37;12.53;;;9.73;;
17852;SDS011;9052;53.494;14.376;2022-08-05T04:20:05;10.17;;;8.70;;
17852;SDS011;9052;53.494;14.376;2022-08-05T04:22:32;16.77;;;8.57;;
17852;SDS011;9052;53.494;14.376;2022-08-05T04:24:59;10.40;;;9.40;;
17852;SDS011;9052;53.494;14.376;2022-08-05T04:27:26;28.57;;;10.00;;
17852;SDS011;9052;53.494;14.376;2022-08-05T04:29:53;12.63;;;9.57;;
17852;SDS011;9052;53.494;14.376;2022-08-05T04:32:20;35.40;;;10.53;;
17852;SDS011;9052;53.494;14.376;2022-08-05T04:34:48;13.53;;;8.87;;
17852;SDS011;9052;53.494;14.376;2022-08-05T04:37:15;17.43;;;10.30;;
17852;SDS011;9052;53.494;14.376;2022-08-05T04:39:42;10.67;;;9.57;;
17852;SDS011;9052;53.494;14.376;2022-08-05T04:42:09;14.80;;;9.60;;
17852;SDS011;9052;53.494;14.376;2022-08-05T04:44:36;16.30;;;10.80;;
17852;SDS011;9052;53.494;14.376;2022-08-05T04:47:04;22.20;;;10.17;;
17852;SDS011;9052;53.494;14.376;2022-08-05T04:49:31;13.03;;;10.07;;
17852;SDS011;9052;53.494;14.376;2022-08-05T04:51:59;15.73;;;8.17;;
17852;SDS011;9052;53.494;14.376;2022-08-05T04:54:26;12.43;;;8.53;;
17852;SDS011;9052;53.494;14.376;2022-08-05T04:56:53;19.83;;;8.37;;
17852;SDS011;9052;53.494;14.376;2022-08-05T04:59:20;14.43;;;8.50;;
17852;SDS011;9052;53.494;14.376;2022-08-05T05:01:47;24.03;;;9.73;;
17852;SDS011;9052;53.494;14.376;2022-08-05T05:04:14;22.63;;;9.00;;
17852;SDS011;9052;53.494;14.376;2022-08-05T05:06:41;15.90;;;8.30;;
17852;SDS011;9052;53.494;14.376;2022-08-05T05:09:10;24.40;;;7.60;;
17852;SDS011;9052;53.494;14.376;2022-08-05T05:11:37;19.30;;;7.27;;
17852;SDS011;9052;53.494;14.376;2022-08-05T05:14:04;18.57;;;7.50;;
17852;SDS011;9052;53.494;14.376;2022-08-05T05:16:31;25.93;;;8.00;;
17852;SDS011;9052;53.494;14.376;2022-08-05T05:18:59;19.70;;;8.37;;
17852;SDS011;9052;53.494;14.376;2022-08-05T05:21:26;29.53;;;8.10;;
17852;SDS011;9052;53.494;14.376;2022-08-05T05:23:53;24.30;;;8.20;;
17852;SDS011;9052;53.494;14.376;2022-08-05T05:26:21;26.13;;;9.87;;
17852;SDS011;9052;53.494;14.376;2022-08-05T05:28:48;17.20;;;9.97;;
17852;SDS011;9052;53.494;14.376;2022-08-05T05:31:15;14.90;;;10.70;;
17852;SDS011;9052;53.494;14.376;2022-08-05T05:33:42;13.83;;;7.77;;
17852;SDS011;9052;53.494;14.376;2022-08-05T05:36:09;25.00;;;10.23;;
17852;SDS011;9052;53.494;14.376;2022-08-05T05:38:36;20.13;;;9.80;;
17852;SDS011;9052;53.494;14.376;2022-08-05T05:41:06;24.40;;;10.07;;
17852;SDS011;9052;53.494;14.376;2022-08-05T05:43:34;13.93;;;10.20;;
17852;SDS011;9052;53.494;14.376;2022-08-05T05:46:01;20.53;;;10.80;;
17852;SDS011;9052;53.494;14.376;2022-08-05T05:48:28;15.67;;;10.47;;
17852;SDS011;9052;53.494;14.376;2022-08-05T05:50:55;15.63;;;11.27;;
17852;SDS011;9052;53.494;14.376;2022-08-05T05:53:22;16.27;;;11.43;;
17852;SDS011;9052;53.494;14.376;2022-08-05T05:55:49;13.53;;;10.80;;
17852;SDS011;9052;53.494;14.376;2022-08-05T05:58:16;21.47;;;11.20;;
17852;SDS011;9052;53.494;14.376;2022-08-05T06:00:45;21.97;;;11.60;;
17852;SDS011;9052;53.494;14.376;2022-08-05T06:03:12;15.93;;;10.70;;
17852;SDS011;9052;53.494;14.376;2022-08-05T06:05:39;36.30;;;11.80;;
17852;SDS011;9052;53.494;14.376;2022-08-05T06:08:06;18.33;;;10.33;;
17852;SDS011;9052;53.494;14.376;2022-08-05T06:10:34;21.73;;;10.17;;
17852;SDS011;9052;53.494;14.376;2022-08-05T06:13:01;20.63;;;10.60;;
17852;SDS011;9052;53.494;14.376;2022-08-05T06:15:29;15.50;;;10.87;;
17852;SDS011;9052;53.494;14.376;2022-08-05T06:17:57;12.70;;;10.37;;
17852;SDS011;9052;53.494;14.376;2022-08-05T06:20:24;19.73;;;9.13;;
17852;SDS011;9052;53.494;14.376;2022-08-05T06:22:51;16.40;;;10.30;;
17852;SDS011;9052;53.494;14.376;2022-08-05T06:25:18;14.57;;;10.00;;
17852;SDS011;9052;53.494;14.376;2022-08-05T06:27:45;11.30;;;10.30;;
17852;SDS011;9052;53.494;14.376;2022-08-05T06:30:12;9.87;;;8.80;;
17852;SDS011;9052;53.494;14.376;2022-08-05T06:32:41;45.60;;;10.70;;
17852;SDS011;9052;53.494;14.376;2022-08-05T06:35:09;34.30;;;9.67;;
17852;SDS011;9052;53.494;14.376;2022-08-05T06:37:37;10.13;;;8.70;;
17852;SDS011;9052;53.494;14.376;2022-08-05T06:40:04;16.27;;;10.37;;
17852;SDS011;9052;53.494;14.376;2022-08-05T06:42:31;17.17;;;9.03;;
17852;SDS011;9052;53.494;14.376;2022-08-05T06:44:58;32.87;;;8.80;;
17852;SDS011;9052;53.494;14.376;2022-08-05T06:47:25;21.37;;;9.20;;
17852;SDS011;9052;53.494;14.376;2022-08-05T06:49:52;27.73;;;10.50;;
17852;SDS011;9052;53.494;14.376;2022-08-05T06:52:21;28.23;;;11.70;;
17852;SDS011;9052;53.494;14.376;2022-08-05T06:54:48;15.00;;;10.80;;
17852;SDS011;9052;53.494;14.376;2022-08-05T06:57:15;11.93;;;10.70;;
17852;SDS011;9052;53.494;14.376;2022-08-05T06:59:42;18.90;;;10.83;;
17852;SDS011;9052;53.494;14.376;2022-08-05T07:02:09;15.57;;;12.60;;
17852;SDS011;9052;53.494;14.376;2022-08-05T07:04:36;37.80;;;14.33;;
17852;SDS011;9052;53.494;14.376;2022-08-05T07:07:03;29.93;;;15.77;;
17852;SDS011;9052;53.494;14.376;2022-08-05T07:09:32;32.30;;;19.03;;
17852;SDS011;9052;53.494;14.376;2022-08-05T07:11:58;40.77;;;23.57;;
17852;SDS011;9052;53.494;14.376;2022-08-05T07:14:25;33.13;;;22.67;;
17852;SDS011;9052;53.494;14.376;2022-08-05T07:17:10;46.17;;;14.20;;
17852;SDS011;9052;53.494;14.376;2022-08-05T07:19:37;13.50;;;11.50;;
17852;SDS011;9052;53.494;14.376;2022-08-05T07:22:04;36.80;;;11.70;;
17852;SDS011;9052;53.494;14.376;2022-08-05T07:24:33;7.00;;;5.53;;
17852;SDS011;9052;53.494;14.376;2022-08-05T07:27:00;6.40;;;5.10;;
17852;SDS011;9052;53.494;14.376;2022-08-05T07:29:27;6.97;;;3.90;;
17852;SDS011;9052;53.494;14.376;2022-08-05T07:31:54;6.60;;;4.50;;
17852;SDS011;9052;53.494;14.376;2022-08-05T07:34:21;19.70;;;4.00;;
17852;SDS011;9052;53.494;14.376;2022-08-05T07:36:48;16.03;;;4.20;;
17852;SDS011;9052;53.494;14.376;2022-08-05T07:39:14;4.80;;;3.10;;
17852;SDS011;9052;53.494;14.376;2022-08-05T07:41:43;10.03;;;3.10;;
17852;SDS011;9052;53.494;14.376;2022-08-05T07:44:10;11.83;;;3.67;;
17852;SDS011;9052;53.494;14.376;2022-08-05T07:46:37;3.13;;;2.87;;
17852;SDS011;9052;53.494;14.376;2022-08-05T07:49:04;11.83;;;3.13;;
17852;SDS011;9052;53.494;14.376;2022-08-05T07:51:32;3.40;;;3.03;;
17852;SDS011;9052;53.494;14.376;2022-08-05T07:54:00;3.30;;;3.00;;
17852;SDS011;9052;53.494;14.376;2022-08-05T07:56:27;3.30;;;3.10;;
17852;SDS011;9052;53.494;14.376;2022-08-05T07:58:55;6.63;;;2.70;;
17852;SDS011;9052;53.494;14.376;2022-08-05T08:01:22;13.70;;;3.37;;
17852;SDS011;9052;53.494;14.376;2022-08-05T08:03:51;6.03;;;3.60;;
17852;SDS011;9052;53.494;14.376;2022-08-05T08:06:18;3.40;;;3.10;;
17852;SDS011;9052;53.494;14.376;2022-08-05T08:08:45;27.27;;;3.67;;
17852;SDS011;9052;53.494;14.376;2022-08-05T08:11:15;6.60;;;4.03;;
17852;SDS011;9052;53.494;14.376;2022-08-05T08:13:42;14.10;;;3.00;;
17852;SDS011;9052;53.494;14.376;2022-08-05T08:16:11;5.27;;;2.70;;
17852;SDS011;9052;53.494;14.376;2022-08-05T08:18:38;6.00;;;3.20;;
17852;SDS011;9052;53.494;14.376;2022-08-05T08:21:04;4.70;;;3.50;;
17852;SDS011;9052;53.494;14.376;2022-08-05T08:23:32;3.50;;;3.20;;
17852;SDS011;9052;53.494;14.376;2022-08-05T08:25:59;5.10;;;2.87;;
17852;SDS011;9052;53.494;14.376;2022-08-05T08:28:26;2.67;;;2.47;;
17852;SDS011;9052;53.494;14.376;2022-08-05T08:30:53;14.77;;;3.13;;
17852;SDS011;9052;53.494;14.376;2022-08-05T08:33:24;2.70;;;2.50;;
17852;SDS011;9052;53.494;14.376;2022-08-05T08:35:50;2.37;;;2.10;;
17852;SDS011;9052;53.494;14.376;2022-08-05T08:38:17;3.07;;;2.83;;
17852;SDS011;9052;53.494;14.376;2022-08-05T08:40:44;5.53;;;2.47;;
17852;SDS011;9052;53.494;14.376;2022-08-05T08:43:13;7.60;;;2.87;;
17852;SDS011;9052;53.494;14.376;2022-08-05T08:45:40;14.77;;;2.87;;
17852;SDS011;9052;53.494;14.376;2022-08-05T08:48:10;2.17;;;2.03;;
17852;SDS011;9052;53.494;14.376;2022-08-05T08:50:40;12.20;;;3.73;;
17852;SDS011;9052;53.494;14.376;2022-08-05T08:53:08;2.07;;;1.97;;
17852;SDS011;9052;53.494;14.376;2022-08-05T08:55:36;32.23;;;4.53;;
17852;SDS011;9052;53.494;14.376;2022-08-05T08:58:04;16.77;;;2.27;;
17852;SDS011;9052;53.494;14.376;2022-08-05T09:00:31;33.57;;;4.27;;
17852;SDS011;9052;53.494;14.376;2022-08-05T09:02:59;32.30;;;2.60;;
17852;SDS011;9052;53.494;14.376;2022-08-05T09:05:26;7.43;;;1.87;;
17852;SDS011;9052;53.494;14.376;2022-08-05T09:07:55;13.90;;;2.80;;
17852;SDS011;9052;53.494;14.376;2022-08-05T09:10:22;21.13;;;2.73;;
17852;SDS011;9052;53.494;14.376;2022-08-05T09:12:49;4.50;;;2.00;;
17852;SDS011;9052;53.494;14.376;2022-08-05T09:15:16;4.20;;;1.93;;
17852;SDS011;9052;53.494;14.376;2022-08-05T09:17:43;19.50;;;3.13;;
17852;SDS011;9052;53.494;14.376;2022-08-05T09:20:10;4.40;;;1.80;;
17852;SDS011;9052;53.494;14.376;2022-08-05T09:25:32;2.87;;;1.70;;
17852;SDS011;9052;53.494;14.376;2022-08-05T09:28:10;33.10;;;3.27;;
17852;SDS011;9052;53.494;14.376;2022-08-05T09:30:41;6.60;;;2.10;;
17852;SDS011;9052;53.494;14.376;2022-08-05T09:33:09;2.13;;;1.87;;
17852;SDS011;9052;53.494;14.376;2022-08-05T09:35:36;10.57;;;2.57;;
17852;SDS011;9052;53.494;14.376;2022-08-05T09:38:05;6.43;;;2.30;;
17852;SDS011;9052;53.494;14.376;2022-08-05T09:40:33;29.13;;;3.90;;
17852;SDS011;9052;53.494;14.376;2022-08-05T09:43:02;6.50;;;2.60;;
17852;SDS011;9052;53.494;14.376;2022-08-05T09:45:34;2.63;;;2.43;;
17852;SDS011;9052;53.494;14.376;2022-08-05T09:50:49;6.33;;;2.70;;
17852;SDS011;9052;53.494;14.376;2022-08-05T09:53:18;3.33;;;3.00;;
17852;SDS011;9052;53.494;14.376;2022-08-05T09:55:45;2.77;;;2.57;;
17852;SDS011;9052;53.494;14.376;2022-08-05T09:58:13;3.43;;;2.57;;
17852;SDS011;9052;53.494;14.376;2022-08-05T10:00:50;5.27;;;3.00;;
17852;SDS011;9052;53.494;14.376;2022-08-05T10:03:19;4.20;;;2.37;;
17852;SDS011;9052;53.494;14.376;2022-08-05T10:05:47;3.30;;;2.47;;
17852;SDS011;9052;53.494;14.376;2022-08-05T10:08:27;3.40;;;3.00;;
17852;SDS011;9052;53.494;14.376;2022-08-05T10:10:54;8.47;;;2.43;;
17852;SDS011;9052;53.494;14.376;2022-08-05T10:13:25;3.47;;;2.70;;
17852;SDS011;9052;53.494;14.376;2022-08-05T10:15:53;6.77;;;3.10;;
17852;SDS011;9052;53.494;14.376;2022-08-05T10:18:22;4.23;;;2.63;;
17852;SDS011;9052;53.494;14.376;2022-08-05T10:20:51;2.77;;;2.57;;
17852;SDS011;9052;53.494;14.376;2022-08-05T10:23:20;3.43;;;2.60;;
17852;SDS011;9052;53.494;14.376;2022-08-05T10:25:49;6.50;;;3.03;;
17852;SDS011;9052;53.494;14.376;2022-08-05T10:28:16;2.80;;;2.60;;
17852;SDS011;9052;53.494;14.376;2022-08-05T10:30:43;2.60;;;2.17;;
17852;SDS011;9052;53.494;14.376;2022-08-05T10:33:10;4.47;;;2.00;;
17852;SDS011;9052;53.494;14.376;2022-08-05T10:35:37;4.20;;;2.43;;
17852;SDS011;9052;53.494;14.376;2022-08-05T10:38:05;4.03;;;2.60;;
17852;SDS011;9052;53.494;14.376;2022-08-05T10:40:33;3.70;;;3.40;;
17852;SDS011;9052;53.494;14.376;2022-08-05T10:43:03;3.90;;;3.43;;
17852;SDS011;9052;53.494;14.376;2022-08-05T10:45:35;3.13;;;2.87;;
17852;SDS011;9052;53.494;14.376;2022-08-05T10:51:02;7.17;;;3.83;;
17852;SDS011;9052;53.494;14.376;2022-08-05T10:56:19;5.43;;;4.30;;
17852;SDS011;9052;53.494;14.376;2022-08-05T10:58:49;5.10;;;4.60;;
17852;SDS011;9052;53.494;14.376;2022-08-05T11:01:29;8.17;;;4.00;;
17852;SDS011;9052;53.494;14.376;2022-08-05T11:04:00;5.57;;;5.07;;
17852;SDS011;9052;53.494;14.376;2022-08-05T11:06:29;5.70;;;4.97;;
17852;SDS011;9052;53.494;14.376;2022-08-05T11:11:53;4.90;;;4.60;;
17852;SDS011;9052;53.494;14.376;2022-08-05T11:14:28;4.73;;;4.33;;
17852;SDS011;9052;53.494;14.376;2022-08-05T11:19:56;4.63;;;4.20;;
17852;SDS011;9052;53.494;14.376;2022-08-05T11:22:37;7.10;;;5.40;;
17852;SDS011;9052;53.494;14.376;2022-08-05T11:34:02;7.37;;;4.10;;
17852;SDS011;9052;53.494;14.376;2022-08-05T11:36:41;6.67;;;4.77;;
17852;SDS011;9052;53.494;14.376;2022-08-05T11:42:21;7.80;;;5.27;;
17852;SDS011;9052;53.494;14.376;2022-08-05T11:44:50;9.90;;;5.23;;
17852;SDS011;9052;53.494;14.376;2022-08-05T11:47:22;5.23;;;3.50;;
17852;SDS011;9052;53.494;14.376;2022-08-05T11:49:54;6.97;;;4.27;;
17852;SDS011;9052;53.494;14.376;2022-08-05T11:52:22;7.53;;;3.40;;
17852;SDS011;9052;53.494;14.376;2022-08-05T11:54:50;5.00;;;2.50;;
17852;SDS011;9052;53.494;14.376;2022-08-05T11:57:17;3.10;;;2.80;;
17852;SDS011;9052;53.494;14.376;2022-08-05T11:59:44;10.80;;;3.00;;
17852;SDS011;9052;53.494;14.376;2022-08-05T12:02:11;4.80;;;3.20;;
17852;SDS011;9052;53.494;14.376;2022-08-05T12:04:41;5.33;;;2.60;;
17852;SDS011;9052;53.494;14.376;2022-08-05T12:07:11;5.30;;;3.20;;
17852;SDS011;9052;53.494;14.376;2022-08-05T12:09:39;3.20;;;3.00;;
17852;SDS011;9052;53.494;14.376;2022-08-05T12:12:08;7.97;;;3.20;;
17852;SDS011;9052;53.494;14.376;2022-08-05T12:14:36;2.63;;;2.40;;
17852;SDS011;9052;53.494;14.376;2022-08-05T12:17:08;2.23;;;1.83;;
17852;SDS011;9052;53.494;14.376;2022-08-05T12:19:43;2.23;;;2.10;;
17852;SDS011;9052;53.494;14.376;2022-08-05T12:22:11;2.70;;;2.00;;
17852;SDS011;9052;53.494;14.376;2022-08-05T12:24:41;2.43;;;2.33;;
17852;SDS011;9052;53.494;14.376;2022-08-05T12:27:09;2.90;;;2.17;;
17852;SDS011;9052;53.494;14.376;2022-08-05T12:29:40;3.83;;;2.30;;
17852;SDS011;9052;53.494;14.376;2022-08-05T12:32:07;2.40;;;1.90;;
17852;SDS011;9052;53.494;14.376;2022-08-05T12:34:35;4.10;;;2.10;;
17852;SDS011;9052;53.494;14.376;2022-08-05T12:37:04;2.43;;;2.23;;
17852;SDS011;9052;53.494;14.376;2022-08-05T12:39:36;2.60;;;1.80;;
17852;SDS011;9052;53.494;14.376;2022-08-05T12:42:12;2.70;;;2.37;;
17852;SDS011;9052;53.494;14.376;2022-08-05T12:44:42;3.00;;;2.00;;
17852;SDS011;9052;53.494;14.376;2022-08-05T12:47:10;6.73;;;2.33;;
17852;SDS011;9052;53.494;14.376;2022-08-05T12:49:38;12.13;;;2.30;;
17852;SDS011;9052;53.494;14.376;2022-08-05T12:52:11;5.93;;;1.77;;
17852;SDS011;9052;53.494;14.376;2022-08-05T12:54:39;4.37;;;2.07;;
17852;SDS011;9052;53.494;14.376;2022-08-05T12:57:08;3.00;;;1.90;;
17852;SDS011;9052;53.494;14.376;2022-08-05T12:59:42;4.10;;;1.93;;
17852;SDS011;9052;53.494;14.376;2022-08-05T13:02:11;5.50;;;2.20;;
17852;SDS011;9052;53.494;14.376;2022-08-05T13:04:40;3.43;;;2.20;;
17852;SDS011;9052;53.494;14.376;2022-08-05T13:07:08;3.83;;;2.10;;
17852;SDS011;9052;53.494;14.376;2022-08-05T13:09:39;3.90;;;2.53;;
17852;SDS011;9052;53.494;14.376;2022-08-05T13:12:07;4.50;;;2.67;;
17852;SDS011;9052;53.494;14.376;2022-08-05T13:14:36;2.23;;;2.13;;
17852;SDS011;9052;53.494;14.376;2022-08-05T13:17:08;4.13;;;2.00;;
17852;SDS011;9052;53.494;14.376;2022-08-05T13:19:36;2.93;;;2.73;;
17852;SDS011;9052;53.494;14.376;2022-08-05T13:22:06;2.47;;;2.27;;
17852;SDS011;9052;53.494;14.376;2022-08-05T13:24:33;2.80;;;2.40;;
17852;SDS011;9052;53.494;14.376;2022-08-05T13:27:02;3.20;;;1.63;;
17852;SDS011;9052;53.494;14.376;2022-08-05T13:29:29;2.10;;;2.00;;
17852;SDS011;9052;53.494;14.376;2022-08-05T13:31:56;6.00;;;2.27;;
17852;SDS011;9052;53.494;14.376;2022-08-05T13:34:23;4.10;;;2.30;;
17852;SDS011;9052;53.494;14.376;2022-08-05T13:36:50;9.50;;;2.20;;
17852;SDS011;9052;53.494;14.376;2022-08-05T13:39:18;3.43;;;1.97;;
17852;SDS011;9052;53.494;14.376;2022-08-05T13:41:45;11.07;;;2.77;;
17852;SDS011;9052;53.494;14.376;2022-08-05T13:44:13;2.10;;;2.00;;
17852;SDS011;9052;53.494;14.376;2022-08-05T13:46:40;2.87;;;2.67;;
17852;SDS011;9052;53.494;14.376;2022-08-05T13:49:07;3.20;;;2.67;;
17852;SDS011;9052;53.494;14.376;2022-08-05T13:51:34;4.13;;;2.57;;
17852;SDS011;9052;53.494;14.376;2022-08-05T13:54:01;3.43;;;2.40;;
17852;SDS011;9052;53.494;14.376;2022-08-05T13:56:28;3.27;;;2.30;;
17852;SDS011;9052;53.494;14.376;2022-08-05T13:58:55;4.80;;;2.07;;
17852;SDS011;9052;53.494;14.376;2022-08-05T14:01:23;2.20;;;2.00;;
17852;SDS011;9052;53.494;14.376;2022-08-05T14:03:50;2.63;;;2.40;;
17852;SDS011;9052;53.494;14.376;2022-08-05T14:06:35;2.93;;;2.10;;
17852;SDS011;9052;53.494;14.376;2022-08-05T14:09:02;2.67;;;2.10;;
17852;SDS011;9052;53.494;14.376;2022-08-05T14:11:29;6.00;;;2.57;;
17852;SDS011;9052;53.494;14.376;2022-08-05T14:13:56;3.87;;;2.30;;
17852;SDS011;9052;53.494;14.376;2022-08-05T14:16:25;8.03;;;3.10;;
17852;SDS011;9052;53.494;14.376;2022-08-05T14:18:52;1.90;;;1.80;;
17852;SDS011;9052;53.494;14.376;2022-08-05T14:21:23;2.30;;;2.20;;
17852;SDS011;9052;53.494;14.376;2022-08-05T14:23:50;3.50;;;2.00;;
17852;SDS011;9052;53.494;14.376;2022-08-05T14:26:17;1.80;;;1.70;;
17852;SDS011;9052;53.494;14.376;2022-08-05T14:28:44;2.23;;;2.00;;
17852;SDS011;9052;53.494;14.376;2022-08-05T14:31:11;4.73;;;2.40;;
17852;SDS011;9052;53.494;14.376;2022-08-05T14:33:39;5.50;;;2.27;;
17852;SDS011;9052;53.494;14.376;2022-08-05T14:36:06;2.03;;;1.83;;
17852;SDS011;9052;53.494;14.376;2022-08-05T14:38:33;2.37;;;1.87;;
17852;SDS011;9052;53.494;14.376;2022-08-05T14:41:02;2.00;;;1.80;;
17852;SDS011;9052;53.494;14.376;2022-08-05T14:43:30;4.63;;;1.67;;
17852;SDS011;9052;53.494;14.376;2022-08-05T14:45:57;10.27;;;2.50;;
17852;SDS011;9052;53.494;14.376;2022-08-05T14:48:24;3.83;;;1.73;;
17852;SDS011;9052;53.494;14.376;2022-08-05T14:50:52;3.40;;;2.57;;
17852;SDS011;9052;53.494;14.376;2022-08-05T14:53:19;9.93;;;2.77;;
17852;SDS011;9052;53.494;14.376;2022-08-05T14:55:47;7.60;;;2.73;;
17852;SDS011;9052;53.494;14.376;2022-08-05T14:58:14;3.33;;;2.37;;
17852;SDS011;9052;53.494;14.376;2022-08-05T15:00:41;4.40;;;2.83;;
17852;SDS011;9052;53.494;14.376;2022-08-05T15:03:09;2.40;;;2.20;;
17852;SDS011;9052;53.494;14.376;2022-08-05T15:05:36;4.77;;;2.63;;
17852;SDS011;9052;53.494;14.376;2022-08-05T15:08:04;4.00;;;2.80;;
17852;SDS011;9052;53.494;14.376;2022-08-05T15:10:31;3.90;;;3.27;;
17852;SDS011;9052;53.494;14.376;2022-08-05T15:12:58;4.80;;;3.50;;
17852;SDS011;9052;53.494;14.376;2022-08-05T15:15:27;8.63;;;3.13;;
17852;SDS011;9052;53.494;14.376;2022-08-05T15:17:54;6.80;;;3.60;;